sensor_id;sensor_type;location;lat;lon;timestamp;P1;durP1;ratioP1;P2;durP2;ratioP2
26040;SDS011;13816;53.628;9.950;2022-08-07T00:00:36;12.20;;;10.20;;
26040;SDS011;13816;53.628;9.950;2022-08-07T00:03:02;14.33;;;9.47;;
26040;SDS011;13816;53.628;9.950;2022-08-07T00:05:28;15.27;;;9.93;;
26040;SDS011;13816;53.628;9.950;2022-08-07T00:07:54;13.73;;;9.23;;
26040;SDS011;13816;53.628;9.950;2022-08-07T00:10:20;16.60;;;10.53;;
26040;SDS011;13816;53.628;9.950;2022-08-07T00:12:49;12.43;;;10.23;;
26040;SDS011;13816;53.628;9.950;2022-08-07T00:15:15;11.87;;;10.10;;
26040;SDS011;13816;53.628;9.950;2022-08-07T00:17:41;13.93;;;10.20;;
26040;SDS011;13816;53.628;9.950;2022-08-07T00:20:08;14.47;;;9.60;;
26040;SDS011;13816;53.628;9.950;2022-08-07T00:22:35;13.03;;;9.60;;
26040;SDS011;13816;53.628;9.950;2022-08-07T00:25:05;13.33;;;10.13;;
26040;SDS011;13816;53.628;9.950;2022-08-07T00:27:31;10.47;;;9.13;;
26040;SDS011;13816;53.628;9.950;2022-08-07T00:29:57;13.33;;;9.80;;
26040;SDS011;13816;53.628;9.950;2022-08-07T00:32:23;11.80;;;9.20;;
26040;SDS011;13816;53.628;9.950;2022-08-07T00:34:49;12.37;;;9.20;;
26040;SDS011;13816;53.628;9.950;2022-08-07T00:37:15;11.67;;;9.67;;
26040;SDS011;13816;53.628;9.950;2022-08-07T00:39:41;12.80;;;9.80;;
26040;SDS011;13816;53.628;9.950;2022-08-07T00:42:07;12.60;;;9.93;;
26040;SDS011;13816;53.628;9.950;2022-08-07T00:44:33;13.70;;;9.90;;
26040;SDS011;13816;53.628;9.950;2022-08-07T00:47:00;11.47;;;9.77;;
26040;SDS011;13816;53.628;9.950;2022-08-07T00:49:26;11.00;;;9.30;;
26040;SDS011;13816;53.628;9.950;2022-08-07T00:51:52;12.70;;;10.03;;
26040;SDS011;13816;53.628;9.950;2022-08-07T00:54:18;11.53;;;9.40;;
26040;SDS011;13816;53.628;9.950;2022-08-07T00:56:45;12.53;;;9.97;;
26040;SDS011;13816;53.628;9.950;2022-08-07T00:59:12;13.40;;;9.90;;
26040;SDS011;13816;53.628;9.950;2022-08-07T01:01:38;11.87;;;9.63;;
26040;SDS011;13816;53.628;9.950;2022-08-07T01:04:04;16.97;;;9.90;;
26040;SDS011;13816;53.628;9.950;2022-08-07T01:06:31;14.03;;;9.30;;
26040;SDS011;13816;53.628;9.950;2022-08-07T01:08:59;12.43;;;9.80;;
26040;SDS011;13816;53.628;9.950;2022-08-07T01:11:25;12.97;;;9.17;;
26040;SDS011;13816;53.628;9.950;2022-08-07T01:13:51;11.57;;;8.50;;
26040;SDS011;13816;53.628;9.950;2022-08-07T01:16:18;14.07;;;10.03;;
26040;SDS011;13816;53.628;9.950;2022-08-07T01:18:44;13.50;;;9.80;;
26040;SDS011;13816;53.628;9.950;2022-08-07T01:21:11;14.20;;;9.30;;
26040;SDS011;13816;53.628;9.950;2022-08-07T01:23:39;12.30;;;9.77;;
26040;SDS011;13816;53.628;9.950;2022-08-07T01:26:08;11.37;;;9.07;;
26040;SDS011;13816;53.628;9.950;2022-08-07T01:28:35;12.47;;;8.83;;
26040;SDS011;13816;53.628;9.950;2022-08-07T01:31:01;10.50;;;9.00;;
26040;SDS011;13816;53.628;9.950;2022-08-07T01:33:29;10.87;;;8.93;;
26040;SDS011;13816;53.628;9.950;2022-08-07T01:35:58;12.57;;;8.50;;
26040;SDS011;13816;53.628;9.950;2022-08-07T01:38:27;15.30;;;10.07;;
26040;SDS011;13816;53.628;9.950;2022-08-07T01:40:57;10.70;;;8.90;;
26040;SDS011;13816;53.628;9.950;2022-08-07T01:43:25;11.00;;;9.33;;
26040;SDS011;13816;53.628;9.950;2022-08-07T01:45:52;11.13;;;8.87;;
26040;SDS011;13816;53.628;9.950;2022-08-07T01:48:19;11.87;;;9.00;;
26040;SDS011;13816;53.628;9.950;2022-08-07T01:50:46;11.13;;;9.00;;
26040;SDS011;13816;53.628;9.950;2022-08-07T01:53:14;15.43;;;8.77;;
26040;SDS011;13816;53.628;9.950;2022-08-07T01:55:44;12.00;;;9.23;;
26040;SDS011;13816;53.628;9.950;2022-08-07T01:58:12;11.17;;;9.20;;
26040;SDS011;13816;53.628;9.950;2022-08-07T02:00:40;12.00;;;9.00;;
26040;SDS011;13816;53.628;9.950;2022-08-07T02:03:11;13.03;;;9.00;;
26040;SDS011;13816;53.628;9.950;2022-08-07T02:05:53;11.87;;;9.33;;
26040;SDS011;13816;53.628;9.950;2022-08-07T02:08:22;9.87;;;7.90;;
26040;SDS011;13816;53.628;9.950;2022-08-07T02:10:50;13.30;;;10.40;;
26040;SDS011;13816;53.628;9.950;2022-08-07T02:13:25;11.63;;;8.73;;
26040;SDS011;13816;53.628;9.950;2022-08-07T02:15:52;16.00;;;9.40;;
26040;SDS011;13816;53.628;9.950;2022-08-07T02:18:19;14.03;;;8.83;;
26040;SDS011;13816;53.628;9.950;2022-08-07T02:20:47;12.77;;;8.40;;
26040;SDS011;13816;53.628;9.950;2022-08-07T02:23:15;10.87;;;8.50;;
26040;SDS011;13816;53.628;9.950;2022-08-07T02:25:41;10.90;;;8.50;;
26040;SDS011;13816;53.628;9.950;2022-08-07T02:28:09;10.43;;;8.20;;
26040;SDS011;13816;53.628;9.950;2022-08-07T02:30:37;9.60;;;8.03;;
26040;SDS011;13816;53.628;9.950;2022-08-07T02:33:04;10.67;;;8.40;;
26040;SDS011;13816;53.628;9.950;2022-08-07T02:35:31;12.50;;;9.03;;
26040;SDS011;13816;53.628;9.950;2022-08-07T02:37:57;9.37;;;7.90;;
26040;SDS011;13816;53.628;9.950;2022-08-07T02:40:26;12.80;;;8.13;;
26040;SDS011;13816;53.628;9.950;2022-08-07T02:42:55;11.20;;;8.37;;
26040;SDS011;13816;53.628;9.950;2022-08-07T02:45:23;10.93;;;8.10;;
26040;SDS011;13816;53.628;9.950;2022-08-07T02:47:52;10.17;;;7.67;;
26040;SDS011;13816;53.628;9.950;2022-08-07T02:50:18;12.50;;;8.17;;
26040;SDS011;13816;53.628;9.950;2022-08-07T02:52:46;9.40;;;8.40;;
26040;SDS011;13816;53.628;9.950;2022-08-07T02:55:15;11.10;;;8.40;;
26040;SDS011;13816;53.628;9.950;2022-08-07T02:57:43;10.43;;;8.20;;
26040;SDS011;13816;53.628;9.950;2022-08-07T03:00:10;12.03;;;8.53;;
26040;SDS011;13816;53.628;9.950;2022-08-07T03:02:39;11.10;;;8.57;;
26040;SDS011;13816;53.628;9.950;2022-08-07T03:05:06;9.97;;;8.13;;
26040;SDS011;13816;53.628;9.950;2022-08-07T03:07:33;9.13;;;8.13;;
26040;SDS011;13816;53.628;9.950;2022-08-07T03:10:00;9.90;;;7.40;;
26040;SDS011;13816;53.628;9.950;2022-08-07T03:12:26;10.40;;;8.27;;
26040;SDS011;13816;53.628;9.950;2022-08-07T03:14:54;11.20;;;8.07;;
26040;SDS011;13816;53.628;9.950;2022-08-07T03:17:20;11.60;;;8.33;;
26040;SDS011;13816;53.628;9.950;2022-08-07T03:19:48;7.77;;;6.70;;
26040;SDS011;13816;53.628;9.950;2022-08-07T03:22:14;7.80;;;6.50;;
26040;SDS011;13816;53.628;9.950;2022-08-07T03:24:41;11.00;;;8.27;;
26040;SDS011;13816;53.628;9.950;2022-08-07T03:27:08;10.07;;;8.13;;
26040;SDS011;13816;53.628;9.950;2022-08-07T03:29:47;10.07;;;8.10;;
26040;SDS011;13816;53.628;9.950;2022-08-07T03:32:14;7.53;;;6.73;;
26040;SDS011;13816;53.628;9.950;2022-08-07T03:34:41;9.90;;;7.83;;
26040;SDS011;13816;53.628;9.950;2022-08-07T03:37:09;9.20;;;7.73;;
26040;SDS011;13816;53.628;9.950;2022-08-07T03:39:35;10.80;;;8.30;;
26040;SDS011;13816;53.628;9.950;2022-08-07T03:42:02;10.67;;;8.23;;
26040;SDS011;13816;53.628;9.950;2022-08-07T03:44:29;8.63;;;7.73;;
26040;SDS011;13816;53.628;9.950;2022-08-07T03:46:56;11.40;;;8.20;;
26040;SDS011;13816;53.628;9.950;2022-08-07T03:49:22;9.83;;;8.07;;
26040;SDS011;13816;53.628;9.950;2022-08-07T03:51:48;20.90;;;8.33;;
26040;SDS011;13816;53.628;9.950;2022-08-07T03:54:16;11.57;;;7.87;;
26040;SDS011;13816;53.628;9.950;2022-08-07T03:56:42;9.73;;;8.27;;
26040;SDS011;13816;53.628;9.950;2022-08-07T03:59:08;11.63;;;8.43;;
26040;SDS011;13816;53.628;9.950;2022-08-07T04:01:39;11.60;;;8.27;;
26040;SDS011;13816;53.628;9.950;2022-08-07T04:04:06;11.03;;;8.13;;
26040;SDS011;13816;53.628;9.950;2022-08-07T04:06:34;16.80;;;7.87;;
26040;SDS011;13816;53.628;9.950;2022-08-07T04:09:01;9.57;;;7.90;;
26040;SDS011;13816;53.628;9.950;2022-08-07T04:11:27;8.83;;;7.77;;
26040;SDS011;13816;53.628;9.950;2022-08-07T04:13:53;11.00;;;7.97;;
26040;SDS011;13816;53.628;9.950;2022-08-07T04:16:21;7.50;;;6.23;;
26040;SDS011;13816;53.628;9.950;2022-08-07T04:18:47;8.77;;;7.43;;
26040;SDS011;13816;53.628;9.950;2022-08-07T04:21:14;9.37;;;7.00;;
26040;SDS011;13816;53.628;9.950;2022-08-07T04:23:40;10.10;;;8.30;;
26040;SDS011;13816;53.628;9.950;2022-08-07T04:26:06;8.80;;;7.63;;
26040;SDS011;13816;53.628;9.950;2022-08-07T04:28:33;8.67;;;7.27;;
26040;SDS011;13816;53.628;9.950;2022-08-07T04:30:59;11.20;;;8.40;;
26040;SDS011;13816;53.628;9.950;2022-08-07T04:33:30;9.17;;;7.70;;
26040;SDS011;13816;53.628;9.950;2022-08-07T04:35:56;11.13;;;8.97;;
26040;SDS011;13816;53.628;9.950;2022-08-07T04:38:25;9.23;;;8.17;;
26040;SDS011;13816;53.628;9.950;2022-08-07T04:40:52;10.63;;;8.30;;
26040;SDS011;13816;53.628;9.950;2022-08-07T04:43:27;8.87;;;7.97;;
26040;SDS011;13816;53.628;9.950;2022-08-07T04:48:26;12.03;;;8.63;;
26040;SDS011;13816;53.628;9.950;2022-08-07T04:51:03;10.17;;;8.00;;
26040;SDS011;13816;53.628;9.950;2022-08-07T04:53:32;11.90;;;8.30;;
26040;SDS011;13816;53.628;9.950;2022-08-07T04:56:20;9.47;;;8.03;;
26040;SDS011;13816;53.628;9.950;2022-08-07T04:58:51;11.00;;;9.37;;
26040;SDS011;13816;53.628;9.950;2022-08-07T05:01:25;11.20;;;8.30;;
26040;SDS011;13816;53.628;9.950;2022-08-07T05:04:20;9.03;;;7.40;;
26040;SDS011;13816;53.628;9.950;2022-08-07T05:06:48;9.80;;;7.93;;
26040;SDS011;13816;53.628;9.950;2022-08-07T05:09:23;11.70;;;8.90;;
26040;SDS011;13816;53.628;9.950;2022-08-07T05:11:51;10.40;;;8.40;;
26040;SDS011;13816;53.628;9.950;2022-08-07T05:14:19;10.30;;;8.80;;
26040;SDS011;13816;53.628;9.950;2022-08-07T05:16:46;11.03;;;7.70;;
26040;SDS011;13816;53.628;9.950;2022-08-07T05:19:16;10.40;;;8.87;;
26040;SDS011;13816;53.628;9.950;2022-08-07T05:21:46;11.90;;;8.20;;
26040;SDS011;13816;53.628;9.950;2022-08-07T05:24:14;12.40;;;8.53;;
26040;SDS011;13816;53.628;9.950;2022-08-07T05:26:42;11.50;;;8.90;;
26040;SDS011;13816;53.628;9.950;2022-08-07T05:29:08;13.30;;;8.33;;
26040;SDS011;13816;53.628;9.950;2022-08-07T05:31:37;11.67;;;8.00;;
26040;SDS011;13816;53.628;9.950;2022-08-07T05:34:12;10.80;;;9.20;;
26040;SDS011;13816;53.628;9.950;2022-08-07T05:36:45;13.70;;;10.10;;
26040;SDS011;13816;53.628;9.950;2022-08-07T05:39:19;11.80;;;8.63;;
26040;SDS011;13816;53.628;9.950;2022-08-07T05:41:47;11.60;;;8.60;;
26040;SDS011;13816;53.628;9.950;2022-08-07T05:44:17;12.40;;;9.77;;
26040;SDS011;13816;53.628;9.950;2022-08-07T05:46:48;10.40;;;8.87;;
26040;SDS011;13816;53.628;9.950;2022-08-07T05:49:18;15.33;;;10.07;;
26040;SDS011;13816;53.628;9.950;2022-08-07T05:51:46;11.87;;;9.33;;
26040;SDS011;13816;53.628;9.950;2022-08-07T05:54:16;14.20;;;9.23;;
26040;SDS011;13816;53.628;9.950;2022-08-07T05:56:43;14.93;;;10.43;;
26040;SDS011;13816;53.628;9.950;2022-08-07T05:59:13;17.00;;;10.50;;
26040;SDS011;13816;53.628;9.950;2022-08-07T06:01:41;14.23;;;10.97;;
26040;SDS011;13816;53.628;9.950;2022-08-07T06:04:09;17.90;;;12.10;;
26040;SDS011;13816;53.628;9.950;2022-08-07T06:06:39;17.83;;;11.53;;
26040;SDS011;13816;53.628;9.950;2022-08-07T06:09:07;16.03;;;11.57;;
26040;SDS011;13816;53.628;9.950;2022-08-07T06:11:37;18.87;;;11.47;;
26040;SDS011;13816;53.628;9.950;2022-08-07T06:14:03;16.93;;;10.93;;
26040;SDS011;13816;53.628;9.950;2022-08-07T06:16:31;15.60;;;10.93;;
26040;SDS011;13816;53.628;9.950;2022-08-07T06:19:02;17.00;;;10.57;;
26040;SDS011;13816;53.628;9.950;2022-08-07T06:21:31;12.33;;;9.97;;
26040;SDS011;13816;53.628;9.950;2022-08-07T06:23:58;14.30;;;10.10;;
26040;SDS011;13816;53.628;9.950;2022-08-07T06:26:25;21.07;;;9.77;;
26040;SDS011;13816;53.628;9.950;2022-08-07T06:28:52;20.37;;;10.00;;
26040;SDS011;13816;53.628;9.950;2022-08-07T06:31:20;11.20;;;8.70;;
26040;SDS011;13816;53.628;9.950;2022-08-07T06:33:46;13.00;;;9.47;;
26040;SDS011;13816;53.628;9.950;2022-08-07T06:36:13;18.67;;;8.43;;
26040;SDS011;13816;53.628;9.950;2022-08-07T06:38:55;15.30;;;8.27;;
26040;SDS011;13816;53.628;9.950;2022-08-07T06:41:24;14.27;;;8.83;;
26040;SDS011;13816;53.628;9.950;2022-08-07T06:43:52;14.37;;;8.30;;
26040;SDS011;13816;53.628;9.950;2022-08-07T06:46:18;14.43;;;8.30;;
26040;SDS011;13816;53.628;9.950;2022-08-07T06:48:44;12.33;;;6.90;;
26040;SDS011;13816;53.628;9.950;2022-08-07T06:51:25;13.73;;;8.17;;
26040;SDS011;13816;53.628;9.950;2022-08-07T06:53:52;14.30;;;6.93;;
26040;SDS011;13816;53.628;9.950;2022-08-07T06:56:21;9.63;;;6.90;;
26040;SDS011;13816;53.628;9.950;2022-08-07T06:59:20;9.13;;;6.20;;
26040;SDS011;13816;53.628;9.950;2022-08-07T07:01:53;11.07;;;7.07;;
26040;SDS011;13816;53.628;9.950;2022-08-07T07:04:22;11.93;;;6.30;;
26040;SDS011;13816;53.628;9.950;2022-08-07T07:06:48;8.03;;;5.10;;
26040;SDS011;13816;53.628;9.950;2022-08-07T07:09:15;8.83;;;5.00;;
26040;SDS011;13816;53.628;9.950;2022-08-07T07:11:43;11.57;;;5.30;;
26040;SDS011;13816;53.628;9.950;2022-08-07T07:14:10;6.60;;;4.80;;
26040;SDS011;13816;53.628;9.950;2022-08-07T07:16:38;9.80;;;5.50;;
26040;SDS011;13816;53.628;9.950;2022-08-07T07:19:05;6.23;;;4.53;;
26040;SDS011;13816;53.628;9.950;2022-08-07T07:21:33;7.13;;;4.60;;
26040;SDS011;13816;53.628;9.950;2022-08-07T07:24:01;10.10;;;4.97;;
26040;SDS011;13816;53.628;9.950;2022-08-07T07:26:27;7.87;;;4.70;;
26040;SDS011;13816;53.628;9.950;2022-08-07T07:28:56;7.60;;;4.63;;
26040;SDS011;13816;53.628;9.950;2022-08-07T07:31:25;6.97;;;4.97;;
26040;SDS011;13816;53.628;9.950;2022-08-07T07:33:53;7.80;;;4.97;;
26040;SDS011;13816;53.628;9.950;2022-08-07T07:36:21;9.00;;;5.47;;
26040;SDS011;13816;53.628;9.950;2022-08-07T07:38:48;7.83;;;5.07;;
26040;SDS011;13816;53.628;9.950;2022-08-07T07:41:15;7.60;;;5.10;;
26040;SDS011;13816;53.628;9.950;2022-08-07T07:43:42;7.23;;;5.60;;
26040;SDS011;13816;53.628;9.950;2022-08-07T07:46:09;4.67;;;4.20;;
26040;SDS011;13816;53.628;9.950;2022-08-07T07:48:35;9.37;;;3.63;;
26040;SDS011;13816;53.628;9.950;2022-08-07T07:51:02;8.10;;;4.57;;
26040;SDS011;13816;53.628;9.950;2022-08-07T07:53:29;5.87;;;4.87;;
26040;SDS011;13816;53.628;9.950;2022-08-07T07:55:57;9.33;;;4.80;;
26040;SDS011;13816;53.628;9.950;2022-08-07T07:58:32;7.93;;;4.90;;
26040;SDS011;13816;53.628;9.950;2022-08-07T08:01:02;5.53;;;4.77;;
26040;SDS011;13816;53.628;9.950;2022-08-07T08:03:28;5.70;;;4.53;;
26040;SDS011;13816;53.628;9.950;2022-08-07T08:05:55;8.43;;;5.30;;
26040;SDS011;13816;53.628;9.950;2022-08-07T08:08:22;6.47;;;5.03;;
26040;SDS011;13816;53.628;9.950;2022-08-07T08:10:49;8.70;;;4.90;;
26040;SDS011;13816;53.628;9.950;2022-08-07T08:13:15;6.30;;;4.80;;
26040;SDS011;13816;53.628;9.950;2022-08-07T08:15:42;5.30;;;4.80;;
26040;SDS011;13816;53.628;9.950;2022-08-07T08:18:11;4.60;;;4.20;;
26040;SDS011;13816;53.628;9.950;2022-08-07T08:20:38;6.10;;;4.53;;
26040;SDS011;13816;53.628;9.950;2022-08-07T08:23:07;5.97;;;4.20;;
26040;SDS011;13816;53.628;9.950;2022-08-07T08:25:54;6.60;;;3.90;;
26040;SDS011;13816;53.628;9.950;2022-08-07T08:28:34;10.57;;;5.40;;
26040;SDS011;13816;53.628;9.950;2022-08-07T08:31:01;7.23;;;4.40;;
26040;SDS011;13816;53.628;9.950;2022-08-07T08:33:29;5.77;;;4.30;;
26040;SDS011;13816;53.628;9.950;2022-08-07T08:35:57;5.57;;;4.93;;
26040;SDS011;13816;53.628;9.950;2022-08-07T08:38:39;5.57;;;4.83;;
26040;SDS011;13816;53.628;9.950;2022-08-07T08:41:12;5.03;;;4.53;;
26040;SDS011;13816;53.628;9.950;2022-08-07T08:46:27;8.83;;;4.80;;
26040;SDS011;13816;53.628;9.950;2022-08-07T08:51:26;6.13;;;4.47;;
26040;SDS011;13816;53.628;9.950;2022-08-07T08:54:03;6.60;;;4.63;;
26040;SDS011;13816;53.628;9.950;2022-08-07T08:59:01;4.67;;;4.13;;
26040;SDS011;13816;53.628;9.950;2022-08-07T09:01:30;6.40;;;4.23;;
26040;SDS011;13816;53.628;9.950;2022-08-07T09:11:58;4.57;;;4.17;;
26040;SDS011;13816;53.628;9.950;2022-08-07T09:14:33;5.00;;;4.60;;
26040;SDS011;13816;53.628;9.950;2022-08-07T09:23:30;6.17;;;4.80;;
26040;SDS011;13816;53.628;9.950;2022-08-07T09:26:04;3.93;;;3.53;;
26040;SDS011;13816;53.628;9.950;2022-08-07T09:28:37;4.57;;;4.17;;
26040;SDS011;13816;53.628;9.950;2022-08-07T09:33:43;4.37;;;3.97;;
26040;SDS011;13816;53.628;9.950;2022-08-07T09:36:13;7.80;;;4.60;;
26040;SDS011;13816;53.628;9.950;2022-08-07T09:38:53;7.07;;;4.43;;
26040;SDS011;13816;53.628;9.950;2022-08-07T09:41:34;5.67;;;4.03;;
26040;SDS011;13816;53.628;9.950;2022-08-07T09:46:54;4.90;;;4.20;;
26040;SDS011;13816;53.628;9.950;2022-08-07T09:54:46;4.47;;;4.07;;
26040;SDS011;13816;53.628;9.950;2022-08-07T10:00:04;5.87;;;4.67;;
26040;SDS011;13816;53.628;9.950;2022-08-07T10:07:58;6.53;;;3.73;;
26040;SDS011;13816;53.628;9.950;2022-08-07T10:13:22;8.90;;;4.00;;
26040;SDS011;13816;53.628;9.950;2022-08-07T10:29:05;5.03;;;3.93;;
26040;SDS011;13816;53.628;9.950;2022-08-07T10:36:33;4.70;;;4.30;;
26040;SDS011;13816;53.628;9.950;2022-08-07T10:39:17;12.33;;;4.37;;
26040;SDS011;13816;53.628;9.950;2022-08-07T10:42:04;7.53;;;4.10;;
26040;SDS011;13816;53.628;9.950;2022-08-07T10:49:44;7.23;;;4.40;;
26040;SDS011;13816;53.628;9.950;2022-08-07T10:52:18;5.03;;;4.03;;
26040;SDS011;13816;53.628;9.950;2022-08-07T10:54:55;5.93;;;3.50;;
26040;SDS011;13816;53.628;9.950;2022-08-07T11:00:08;4.30;;;3.60;;
26040;SDS011;13816;53.628;9.950;2022-08-07T11:10:28;5.20;;;4.00;;
26040;SDS011;13816;53.628;9.950;2022-08-07T11:13:05;4.90;;;3.67;;
26040;SDS011;13816;53.628;9.950;2022-08-07T11:15:34;4.30;;;3.27;;
26040;SDS011;13816;53.628;9.950;2022-08-07T11:23:22;4.33;;;3.93;;
26040;SDS011;13816;53.628;9.950;2022-08-07T11:25:53;6.33;;;3.90;;
26040;SDS011;13816;53.628;9.950;2022-08-07T11:28:33;6.00;;;3.47;;
26040;SDS011;13816;53.628;9.950;2022-08-07T11:31:05;6.17;;;3.50;;
26040;SDS011;13816;53.628;9.950;2022-08-07T11:33:41;6.17;;;3.60;;
26040;SDS011;13816;53.628;9.950;2022-08-07T11:36:17;5.60;;;3.53;;
26040;SDS011;13816;53.628;9.950;2022-08-07T11:39:03;4.47;;;3.50;;
26040;SDS011;13816;53.628;9.950;2022-08-07T11:41:33;7.30;;;3.80;;
26040;SDS011;13816;53.628;9.950;2022-08-07T11:44:08;5.77;;;3.67;;
26040;SDS011;13816;53.628;9.950;2022-08-07T11:49:13;5.07;;;3.40;;
26040;SDS011;13816;53.628;9.950;2022-08-07T12:09:41;3.90;;;3.10;;
26040;SDS011;13816;53.628;9.950;2022-08-07T12:12:11;3.37;;;3.07;;
26040;SDS011;13816;53.628;9.950;2022-08-07T12:14:47;4.20;;;3.80;;
26040;SDS011;13816;53.628;9.950;2022-08-07T12:17:15;6.17;;;3.70;;
26040;SDS011;13816;53.628;9.950;2022-08-07T12:19:58;3.57;;;3.27;;
26040;SDS011;13816;53.628;9.950;2022-08-07T12:22:38;4.80;;;3.20;;
26040;SDS011;13816;53.628;9.950;2022-08-07T12:28:01;4.40;;;4.00;;
26040;SDS011;13816;53.628;9.950;2022-08-07T12:30:31;5.00;;;3.40;;
26040;SDS011;13816;53.628;9.950;2022-08-07T12:33:02;5.70;;;4.30;;
26040;SDS011;13816;53.628;9.950;2022-08-07T12:35:30;5.87;;;3.87;;
26040;SDS011;13816;53.628;9.950;2022-08-07T12:37:56;6.90;;;3.67;;
26040;SDS011;13816;53.628;9.950;2022-08-07T12:40:24;4.60;;;3.63;;
26040;SDS011;13816;53.628;9.950;2022-08-07T12:42:51;3.67;;;3.20;;
26040;SDS011;13816;53.628;9.950;2022-08-07T12:45:18;4.03;;;3.00;;
26040;SDS011;13816;53.628;9.950;2022-08-07T12:47:48;3.77;;;3.40;;
26040;SDS011;13816;53.628;9.950;2022-08-07T12:50:25;4.83;;;3.67;;
26040;SDS011;13816;53.628;9.950;2022-08-07T12:53:03;4.30;;;3.70;;
26040;SDS011;13816;53.628;9.950;2022-08-07T12:58:01;3.60;;;3.30;;
26040;SDS011;13816;53.628;9.950;2022-08-07T13:00:53;3.20;;;2.90;;
26040;SDS011;13816;53.628;9.950;2022-08-07T13:06:16;7.23;;;4.03;;
26040;SDS011;13816;53.628;9.950;2022-08-07T13:08:47;6.47;;;3.73;;
26040;SDS011;13816;53.628;9.950;2022-08-07T13:16:26;5.13;;;3.80;;
26040;SDS011;13816;53.628;9.950;2022-08-07T13:19:03;6.53;;;3.50;;
26040;SDS011;13816;53.628;9.950;2022-08-07T13:21:37;6.37;;;3.60;;
26040;SDS011;13816;53.628;9.950;2022-08-07T13:24:15;7.47;;;3.50;;
26040;SDS011;13816;53.628;9.950;2022-08-07T13:26:45;6.63;;;3.87;;
26040;SDS011;13816;53.628;9.950;2022-08-07T13:29:19;4.03;;;3.63;;
26040;SDS011;13816;53.628;9.950;2022-08-07T13:31:51;3.80;;;3.50;;
26040;SDS011;13816;53.628;9.950;2022-08-07T13:36:58;4.03;;;3.47;;
26040;SDS011;13816;53.628;9.950;2022-08-07T13:39:38;5.30;;;3.33;;
26040;SDS011;13816;53.628;9.950;2022-08-07T13:42:08;4.40;;;4.00;;
26040;SDS011;13816;53.628;9.950;2022-08-07T13:44:38;4.30;;;3.90;;
26040;SDS011;13816;53.628;9.950;2022-08-07T13:47:05;4.67;;;3.60;;
26040;SDS011;13816;53.628;9.950;2022-08-07T13:49:33;9.03;;;3.90;;
26040;SDS011;13816;53.628;9.950;2022-08-07T13:52:06;4.73;;;3.43;;
26040;SDS011;13816;53.628;9.950;2022-08-07T13:54:33;7.00;;;3.70;;
26040;SDS011;13816;53.628;9.950;2022-08-07T13:57:03;4.67;;;3.20;;
26040;SDS011;13816;53.628;9.950;2022-08-07T13:59:36;3.70;;;3.30;;
26040;SDS011;13816;53.628;9.950;2022-08-07T14:02:08;4.13;;;3.60;;
26040;SDS011;13816;53.628;9.950;2022-08-07T14:04:47;3.47;;;3.17;;
26040;SDS011;13816;53.628;9.950;2022-08-07T14:07:14;4.73;;;3.53;;
26040;SDS011;13816;53.628;9.950;2022-08-07T14:09:41;3.47;;;3.17;;
26040;SDS011;13816;53.628;9.950;2022-08-07T14:12:18;11.53;;;3.70;;
26040;SDS011;13816;53.628;9.950;2022-08-07T14:14:50;4.37;;;3.43;;
26040;SDS011;13816;53.628;9.950;2022-08-07T14:17:18;3.70;;;3.07;;
26040;SDS011;13816;53.628;9.950;2022-08-07T14:19:48;4.43;;;3.47;;
26040;SDS011;13816;53.628;9.950;2022-08-07T14:22:16;3.83;;;3.50;;
26040;SDS011;13816;53.628;9.950;2022-08-07T14:24:47;4.10;;;3.70;;
26040;SDS011;13816;53.628;9.950;2022-08-07T14:27:14;4.17;;;3.77;;
26040;SDS011;13816;53.628;9.950;2022-08-07T14:29:46;4.57;;;3.70;;
26040;SDS011;13816;53.628;9.950;2022-08-07T14:32:13;3.87;;;2.83;;
26040;SDS011;13816;53.628;9.950;2022-08-07T14:34:44;4.87;;;3.20;;
26040;SDS011;13816;53.628;9.950;2022-08-07T14:37:11;5.10;;;3.27;;
26040;SDS011;13816;53.628;9.950;2022-08-07T14:39:39;4.80;;;3.50;;
26040;SDS011;13816;53.628;9.950;2022-08-07T14:42:09;4.50;;;3.23;;
26040;SDS011;13816;53.628;9.950;2022-08-07T14:44:37;3.40;;;3.10;;
26040;SDS011;13816;53.628;9.950;2022-08-07T14:47:04;5.13;;;3.40;;
26040;SDS011;13816;53.628;9.950;2022-08-07T14:49:31;3.83;;;3.43;;
26040;SDS011;13816;53.628;9.950;2022-08-07T14:51:59;4.57;;;3.47;;
26040;SDS011;13816;53.628;9.950;2022-08-07T14:54:29;4.23;;;3.50;;
26040;SDS011;13816;53.628;9.950;2022-08-07T14:56:56;5.20;;;3.20;;
26040;SDS011;13816;53.628;9.950;2022-08-07T14:59:23;4.00;;;3.40;;
26040;SDS011;13816;53.628;9.950;2022-08-07T15:01:55;4.83;;;3.67;;
26040;SDS011;13816;53.628;9.950;2022-08-07T15:04:23;3.43;;;3.13;;
26040;SDS011;13816;53.628;9.950;2022-08-07T15:06:49;11.97;;;3.60;;
26040;SDS011;13816;53.628;9.950;2022-08-07T15:09:17;6.60;;;3.17;;
26040;SDS011;13816;53.628;9.950;2022-08-07T15:12:04;3.13;;;2.80;;
26040;SDS011;13816;53.628;9.950;2022-08-07T15:14:32;4.10;;;3.40;;
26040;SDS011;13816;53.628;9.950;2022-08-07T15:17:00;11.00;;;3.50;;
26040;SDS011;13816;53.628;9.950;2022-08-07T15:19:28;5.00;;;3.73;;
26040;SDS011;13816;53.628;9.950;2022-08-07T15:21:56;3.73;;;3.43;;
26040;SDS011;13816;53.628;9.950;2022-08-07T15:24:23;3.47;;;3.17;;
26040;SDS011;13816;53.628;9.950;2022-08-07T15:26:56;4.23;;;3.70;;
26040;SDS011;13816;53.628;9.950;2022-08-07T15:29:23;3.10;;;2.80;;
26040;SDS011;13816;53.628;9.950;2022-08-07T15:31:58;5.40;;;3.13;;
26040;SDS011;13816;53.628;9.950;2022-08-07T15:34:25;5.27;;;3.60;;
26040;SDS011;13816;53.628;9.950;2022-08-07T15:36:53;7.70;;;4.33;;
26040;SDS011;13816;53.628;9.950;2022-08-07T15:39:20;6.67;;;3.80;;
26040;SDS011;13816;53.628;9.950;2022-08-07T15:41:56;3.80;;;3.47;;
26040;SDS011;13816;53.628;9.950;2022-08-07T15:44:23;3.60;;;3.13;;
26040;SDS011;13816;53.628;9.950;2022-08-07T15:46:57;3.17;;;2.97;;
26040;SDS011;13816;53.628;9.950;2022-08-07T15:49:28;5.70;;;3.37;;
26040;SDS011;13816;53.628;9.950;2022-08-07T15:51:55;9.40;;;4.00;;
26040;SDS011;13816;53.628;9.950;2022-08-07T15:54:21;5.57;;;3.30;;
26040;SDS011;13816;53.628;9.950;2022-08-07T15:56:48;3.87;;;3.57;;
26040;SDS011;13816;53.628;9.950;2022-08-07T15:59:14;3.57;;;3.10;;
26040;SDS011;13816;53.628;9.950;2022-08-07T16:01:53;5.63;;;3.50;;
26040;SDS011;13816;53.628;9.950;2022-08-07T16:04:20;6.20;;;3.30;;
26040;SDS011;13816;53.628;9.950;2022-08-07T16:06:52;6.00;;;3.60;;
26040;SDS011;13816;53.628;9.950;2022-08-07T16:09:19;3.23;;;2.90;;
26040;SDS011;13816;53.628;9.950;2022-08-07T16:11:53;7.73;;;3.40;;
26040;SDS011;13816;53.628;9.950;2022-08-07T16:17:26;3.33;;;2.93;;
26040;SDS011;13816;53.628;9.950;2022-08-07T16:25:29;3.27;;;3.03;;
26040;SDS011;13816;53.628;9.950;2022-08-07T16:30:43;4.80;;;3.40;;
26040;SDS011;13816;53.628;9.950;2022-08-07T16:33:12;3.87;;;3.20;;
26040;SDS011;13816;53.628;9.950;2022-08-07T16:35:42;3.33;;;3.03;;
26040;SDS011;13816;53.628;9.950;2022-08-07T16:38:29;7.67;;;3.27;;
26040;SDS011;13816;53.628;9.950;2022-08-07T16:48:59;3.10;;;2.80;;
26040;SDS011;13816;53.628;9.950;2022-08-07T16:57:13;5.50;;;3.20;;
26040;SDS011;13816;53.628;9.950;2022-08-07T17:05:51;4.37;;;2.73;;
26040;SDS011;13816;53.628;9.950;2022-08-07T17:07:57;3.47;;;3.10;;
26040;SDS011;13816;53.628;9.950;2022-08-07T17:18:30;4.30;;;3.20;;
26040;SDS011;13816;53.628;9.950;2022-08-07T17:21:02;4.57;;;3.57;;
26040;SDS011;13816;53.628;9.950;2022-08-07T17:23:52;3.87;;;3.57;;
26040;SDS011;13816;53.628;9.950;2022-08-07T17:26:22;3.50;;;3.13;;
26040;SDS011;13816;53.628;9.950;2022-08-07T17:29:00;4.27;;;3.30;;
26040;SDS011;13816;53.628;9.950;2022-08-07T17:31:45;4.13;;;3.40;;
26040;SDS011;13816;53.628;9.950;2022-08-07T17:34:15;10.43;;;4.30;;
26040;SDS011;13816;53.628;9.950;2022-08-07T17:36:48;5.00;;;3.60;;